createdAt,value
2022-11-09T00:00:44.814Z,1.00
2022-11-09T00:03:13.006Z,1.00
2022-11-09T00:05:42.488Z,1.00
2022-11-09T00:08:11.693Z,1.00
2022-11-09T00:10:39.908Z,1.00
2022-11-09T00:13:08.062Z,1.00
2022-11-09T00:15:36.121Z,1.00
2022-11-09T00:18:04.522Z,1.00
2022-11-09T00:20:32.772Z,1.00
2022-11-09T00:23:02.164Z,1.00
2022-11-09T00:25:30.262Z,1.00
2022-11-09T00:27:58.400Z,1.00
2022-11-09T00:30:27.608Z,1.00
2022-11-09T00:32:56.566Z,1.00
2022-11-09T00:35:24.617Z,1.00
2022-11-09T00:37:52.791Z,1.00
2022-11-09T00:40:22.272Z,1.00
2022-11-09T00:42:50.413Z,1.00
2022-11-09T00:45:18.617Z,1.00
2022-11-09T00:47:46.802Z,1.00
2022-11-09T00:50:14.955Z,1.00
2022-11-09T00:52:43.070Z,1.00
2022-11-09T00:55:11.265Z,1.00
2022-11-09T00:57:40.725Z,1.00
2022-11-09T01:00:10.208Z,1.00
2022-11-09T01:02:38.368Z,1.00
2022-11-09T01:05:07.420Z,1.00
2022-11-09T01:07:35.523Z,1.00
2022-11-09T01:10:03.639Z,1.00
2022-11-09T01:12:31.802Z,1.00
2022-11-09T01:15:01.350Z,1.00
2022-11-09T01:17:29.454Z,1.00
2022-11-09T01:19:57.573Z,1.00
2022-11-09T01:22:25.706Z,1.00
2022-11-09T01:24:53.788Z,1.00
2022-11-09T01:27:21.872Z,1.00
2022-11-09T01:29:49.967Z,1.00
2022-11-09T01:32:19.459Z,1.00
2022-11-09T01:34:47.697Z,1.00
2022-11-09T01:37:15.770Z,1.00
2022-11-09T01:39:43.878Z,1.00
2022-11-09T01:42:12.009Z,1.00
2022-11-09T01:44:40.147Z,1.00
2022-11-09T01:47:11.519Z,1.00
2022-11-09T01:49:43.667Z,1.00
2022-11-09T01:52:13.865Z,1.00
2022-11-09T01:54:45.185Z,1.00
2022-11-09T01:57:19.625Z,1.00
2022-11-09T01:59:49.949Z,1.00
2022-11-09T02:02:19.175Z,1.00
2022-11-09T02:04:51.194Z,1.00
2022-11-09T02:07:19.344Z,1.00
2022-11-09T02:09:50.943Z,1.00
2022-11-09T02:12:19.106Z,1.00
2022-11-09T02:14:47.269Z,1.00
2022-11-09T02:17:15.383Z,1.00
2022-11-09T02:19:43.538Z,1.00
2022-11-09T02:22:31.150Z,1.00
2022-11-09T02:24:59.308Z,1.00
2022-11-09T02:27:27.405Z,1.00
2022-11-09T02:29:55.496Z,1.00
2022-11-09T02:32:25.695Z,1.00
2022-11-09T02:34:53.854Z,1.00
2022-11-09T02:37:31.078Z,1.00
2022-11-09T02:40:00.024Z,1.00
2022-11-09T02:42:28.192Z,1.00
2022-11-09T02:44:59.558Z,1.00
2022-11-09T02:47:27.807Z,1.00
2022-11-09T02:49:57.846Z,1.00
2022-11-09T02:52:26.018Z,1.00
2022-11-09T02:54:55.816Z,1.00
2022-11-09T02:57:23.960Z,1.00
2022-11-09T02:59:52.053Z,1.00
2022-11-09T03:02:20.181Z,1.00
2022-11-09T03:04:48.317Z,1.00
2022-11-09T03:07:16.421Z,1.00
2022-11-09T03:09:46.038Z,1.00
2022-11-09T03:12:30.789Z,1.00
2022-11-09T03:14:59.069Z,1.00
2022-11-09T03:17:27.211Z,1.00
2022-11-09T03:19:55.505Z,1.00
2022-11-09T03:22:23.675Z,1.00
2022-11-09T03:24:51.854Z,1.00
2022-11-09T03:27:21.314Z,1.00
2022-11-09T03:29:49.435Z,1.00
2022-11-09T03:32:17.602Z,1.00
2022-11-09T03:34:45.685Z,1.00
2022-11-09T03:37:13.859Z,1.00
2022-11-09T03:39:42.021Z,1.00
2022-11-09T03:42:10.135Z,1.00
2022-11-09T03:44:39.671Z,1.00
2022-11-09T03:47:07.857Z,1.00
2022-11-09T03:49:35.974Z,1.00
2022-11-09T03:52:04.276Z,1.00
2022-11-09T03:54:32.348Z,1.00
2022-11-09T03:57:00.567Z,1.00
2022-11-09T03:59:28.657Z,1.00
2022-11-09T04:01:58.287Z,1.00
2022-11-09T04:04:26.366Z,1.00
2022-11-09T04:06:54.535Z,1.00
2022-11-09T04:09:22.743Z,1.00
2022-11-09T04:11:50.871Z,1.00
2022-11-09T04:14:19.023Z,1.00
2022-11-09T04:16:47.193Z,1.00
2022-11-09T04:19:16.911Z,1.00
2022-11-09T04:21:45.049Z,1.00
2022-11-09T04:24:13.222Z,1.00
2022-11-09T04:26:41.313Z,1.00
2022-11-09T04:29:09.407Z,1.00
2022-11-09T04:31:37.567Z,1.00
2022-11-09T04:34:05.750Z,1.00
2022-11-09T04:36:35.191Z,1.00
2022-11-09T04:39:03.734Z,1.00
2022-11-09T04:41:31.891Z,1.00
2022-11-09T04:43:59.970Z,1.00
2022-11-09T04:46:28.306Z,1.00
2022-11-09T04:48:56.461Z,1.00
2022-11-09T04:51:24.595Z,1.00
2022-11-09T04:53:54.133Z,1.00
2022-11-09T04:56:22.351Z,1.00
2022-11-09T04:58:50.447Z,1.00
2022-11-09T05:01:18.609Z,1.00
2022-11-09T05:03:46.804Z,1.00
2022-11-09T05:06:33.523Z,1.00
2022-11-09T05:09:05.345Z,1.00
2022-11-09T05:11:33.714Z,1.00
2022-11-09T05:14:02.126Z,1.00
2022-11-09T05:16:30.515Z,1.00
2022-11-09T05:18:58.776Z,1.00
2022-11-09T05:21:27.542Z,1.00
2022-11-09T05:24:01.068Z,1.00
2022-11-09T05:26:32.436Z,1.00
2022-11-09T05:29:00.865Z,1.00
2022-11-09T05:31:29.179Z,1.00
2022-11-09T05:33:57.477Z,1.00
2022-11-09T05:36:25.614Z,1.00
2022-11-09T05:38:53.830Z,1.00
2022-11-09T05:41:21.933Z,1.00
2022-11-09T05:43:51.438Z,1.00
2022-11-09T05:46:19.824Z,1.00
2022-11-09T05:48:48.126Z,1.00
2022-11-09T05:51:16.845Z,1.00
2022-11-09T05:53:46.731Z,1.00
2022-11-09T05:56:15.682Z,1.00
2022-11-09T05:58:44.175Z,1.00
2022-11-09T06:01:15.125Z,1.00
2022-11-09T06:03:44.350Z,1.00
2022-11-09T06:06:14.951Z,1.00
2022-11-09T06:08:43.160Z,1.00
2022-11-09T06:11:15.715Z,1.00
2022-11-09T06:13:49.823Z,1.00
2022-11-09T06:16:19.307Z,1.00
2022-11-09T06:18:47.364Z,1.00
2022-11-09T06:21:15.497Z,1.00
2022-11-09T06:23:43.638Z,1.00
2022-11-09T06:26:12.516Z,1.00
2022-11-09T06:28:41.148Z,1.00
2022-11-09T06:31:11.815Z,1.00
2022-11-09T06:33:41.279Z,1.00
2022-11-09T06:36:10.541Z,1.00
2022-11-09T06:38:38.613Z,1.00
2022-11-09T06:41:07.121Z,1.00
2022-11-09T06:43:35.258Z,1.00
2022-11-09T06:46:04.978Z,1.00
2022-11-09T06:48:33.160Z,1.00
2022-11-09T06:51:03.189Z,1.00
2022-11-09T06:53:31.360Z,1.00
2022-11-09T06:55:59.984Z,1.00
2022-11-09T06:58:28.235Z,1.00
2022-11-09T07:00:56.625Z,1.00
2022-11-09T07:03:25.011Z,1.00
2022-11-09T07:05:53.396Z,1.00
2022-11-09T07:08:22.880Z,1.00
2022-11-09T07:10:51.067Z,1.00
2022-11-09T07:13:19.504Z,1.00
2022-11-09T07:15:53.709Z,1.00
2022-11-09T07:18:21.855Z,1.00
2022-11-09T07:20:50.081Z,1.00
2022-11-09T07:23:18.500Z,1.00
2022-11-09T07:25:48.301Z,1.00
2022-11-09T07:28:16.509Z,1.00
2022-11-09T07:30:44.653Z,1.00
2022-11-09T07:33:14.860Z,1.00
2022-11-09T07:35:43.101Z,1.00
2022-11-09T07:38:11.282Z,1.00
2022-11-09T07:40:39.422Z,1.00
2022-11-09T07:43:08.927Z,1.00
2022-11-09T07:45:37.089Z,1.00
2022-11-09T07:48:07.176Z,1.00
2022-11-09T07:50:35.724Z,1.00
2022-11-09T07:53:05.441Z,1.00
2022-11-09T07:55:33.672Z,1.00
2022-11-09T07:58:04.190Z,1.00
2022-11-09T08:00:35.321Z,1.00
2022-11-09T08:03:03.879Z,1.00
2022-11-09T08:05:32.129Z,1.00
2022-11-09T08:08:01.354Z,1.00
2022-11-09T08:10:30.370Z,1.00
2022-11-09T08:12:59.593Z,1.00
2022-11-09T08:15:27.937Z,1.00
2022-11-09T08:18:00.536Z,1.00
2022-11-09T08:20:28.746Z,1.00
2022-11-09T08:23:02.384Z,1.00
2022-11-09T08:25:32.787Z,1.00
2022-11-09T08:28:02.350Z,1.00
2022-11-09T08:30:30.480Z,1.00
2022-11-09T08:33:00.063Z,1.00
2022-11-09T08:35:28.293Z,1.00
2022-11-09T08:37:56.590Z,1.00
2022-11-09T08:40:25.665Z,1.00
2022-11-09T08:42:53.981Z,1.00
2022-11-09T08:45:22.177Z,1.00
2022-11-09T08:47:50.298Z,1.00
2022-11-09T08:50:20.102Z,1.00
2022-11-09T08:52:48.164Z,1.00
2022-11-09T08:55:16.318Z,1.00
2022-11-09T08:57:45.568Z,1.00
2022-11-09T09:00:16.601Z,1.00
2022-11-09T09:02:44.674Z,1.00
2022-11-09T09:05:12.811Z,1.00
2022-11-09T09:07:42.311Z,1.00
2022-11-09T09:10:10.476Z,1.00
2022-11-09T09:12:38.522Z,1.00
2022-11-09T09:15:07.798Z,1.00
2022-11-09T09:17:36.508Z,1.00
2022-11-09T09:20:05.612Z,1.00
2022-11-09T09:22:34.041Z,1.00
2022-11-09T09:25:03.543Z,1.00
2022-11-09T09:27:31.678Z,1.00
2022-11-09T09:29:59.880Z,1.00
2022-11-09T09:32:29.340Z,1.00
2022-11-09T09:34:57.456Z,1.00
2022-11-09T09:37:25.554Z,1.00
2022-11-09T09:39:53.630Z,1.00
2022-11-09T09:42:26.324Z,1.00
2022-11-09T09:44:57.955Z,1.00
2022-11-09T09:47:30.997Z,1.00
2022-11-09T09:50:01.603Z,1.00
2022-11-09T09:52:37.725Z,1.00
2022-11-09T09:55:09.975Z,1.00
2022-11-09T09:57:42.155Z,1.00
2022-11-09T10:00:20.951Z,1.00
2022-11-09T10:02:49.508Z,1.00
2022-11-09T10:05:18.013Z,1.00
2022-11-09T10:07:52.251Z,1.00
2022-11-09T10:10:32.131Z,1.00
2022-11-09T10:13:19.397Z,1.00
2022-11-09T10:15:50.767Z,1.00
2022-11-09T10:18:38.214Z,1.00
2022-11-09T10:21:19.489Z,1.00
2022-11-09T10:24:00.997Z,1.00
2022-11-09T10:26:32.321Z,1.00
2022-11-09T10:29:16.167Z,1.00
2022-11-09T10:31:44.994Z,1.00
2022-11-09T10:34:19.018Z,1.00
2022-11-09T10:36:53.360Z,1.00
2022-11-09T10:39:21.463Z,1.00
2022-11-09T10:41:49.540Z,1.00
2022-11-09T10:44:20.803Z,1.00
2022-11-09T10:47:11.190Z,1.00
2022-11-09T10:49:39.480Z,1.00
2022-11-09T10:52:07.903Z,1.00
2022-11-09T10:54:38.020Z,1.00
2022-11-09T10:57:14.087Z,1.00
2022-11-09T10:59:47.243Z,1.00
2022-11-09T11:02:53.187Z,1.00
2022-11-09T11:05:35.190Z,1.00
2022-11-09T11:08:30.839Z,1.00
2022-11-09T11:11:38.071Z,1.00
2022-11-09T11:14:22.720Z,1.00
2022-11-09T11:16:53.364Z,1.00
2022-11-09T11:19:35.490Z,1.00
2022-11-09T11:22:23.674Z,1.00
2022-11-09T11:24:56.960Z,1.00
2022-11-09T11:27:30.135Z,1.00
2022-11-09T11:30:06.092Z,1.00
2022-11-09T11:32:35.670Z,1.00
2022-11-09T11:35:05.511Z,1.00
2022-11-09T11:37:45.152Z,1.00
2022-11-09T11:40:19.689Z,1.00
2022-11-09T11:43:07.977Z,1.00
2022-11-09T11:45:41.308Z,1.00
2022-11-09T11:48:49.358Z,1.00
2022-11-09T11:51:19.879Z,1.00
2022-11-09T11:54:04.853Z,1.00
2022-11-09T11:56:34.898Z,1.00
2022-11-09T11:59:23.639Z,1.00
2022-11-09T12:02:04.295Z,1.00
2022-11-09T12:05:21.565Z,1.00
2022-11-09T12:07:57.106Z,1.00
2022-11-09T12:10:36.580Z,1.00
2022-11-09T12:13:12.168Z,1.00
2022-11-09T12:15:51.173Z,1.00
2022-11-09T12:18:34.005Z,1.00
2022-11-09T12:21:16.128Z,1.00
2022-11-09T12:24:02.945Z,1.00
2022-11-09T12:26:44.587Z,1.00
2022-11-09T12:29:20.557Z,1.00
2022-11-09T12:32:01.512Z,1.00
2022-11-09T12:34:33.197Z,1.00
2022-11-09T12:37:04.264Z,1.00
2022-11-09T12:39:36.385Z,1.00
2022-11-09T12:42:22.076Z,1.00
2022-11-09T12:45:00.433Z,1.00
2022-11-09T12:47:31.000Z,1.00
2022-11-09T12:49:59.358Z,1.00
2022-11-09T12:52:30.209Z,1.00
2022-11-09T12:54:58.634Z,1.00
2022-11-09T12:57:28.918Z,1.00
2022-11-09T12:59:57.902Z,1.00
2022-11-09T13:02:31.906Z,1.00
2022-11-09T13:05:01.285Z,1.00
2022-11-09T13:07:52.769Z,1.00
2022-11-09T13:10:39.243Z,1.00
2022-11-09T13:13:22.882Z,1.00
2022-11-09T13:16:12.635Z,1.00
2022-11-09T13:18:52.412Z,1.00
2022-11-09T13:21:51.234Z,1.00
2022-11-09T13:24:55.238Z,1.00
2022-11-09T13:27:45.052Z,1.00
2022-11-09T13:30:49.560Z,1.00
2022-11-09T13:33:23.742Z,1.00
2022-11-09T13:36:18.609Z,1.00
2022-11-09T13:38:46.964Z,1.00
2022-11-09T13:41:44.779Z,1.00
2022-11-09T13:44:19.611Z,1.00
2022-11-09T13:46:48.355Z,1.00
2022-11-09T13:49:48.445Z,1.00
2022-11-09T13:52:49.884Z,1.00
2022-11-09T13:55:30.722Z,1.00
2022-11-09T13:58:05.656Z,1.00
2022-11-09T14:00:33.956Z,1.00
2022-11-09T14:03:06.605Z,1.00
2022-11-09T14:05:37.624Z,1.00
2022-11-09T14:08:06.231Z,1.00
2022-11-09T14:11:31.600Z,1.00
2022-11-09T14:14:44.918Z,1.00
2022-11-09T14:17:17.475Z,1.00
2022-11-09T14:19:54.576Z,1.00
2022-11-09T14:22:22.961Z,1.00
2022-11-09T14:24:51.234Z,1.00
2022-11-09T14:27:21.526Z,1.00
2022-11-09T14:29:53.961Z,1.00
2022-11-09T14:32:31.723Z,1.00
2022-11-09T14:35:23.770Z,1.00
2022-11-09T14:37:52.802Z,1.00
2022-11-09T14:40:24.713Z,1.00
2022-11-09T14:42:55.478Z,1.00
2022-11-09T14:45:25.123Z,1.00
2022-11-09T14:47:55.712Z,1.00
2022-11-09T14:50:25.461Z,1.00
2022-11-09T14:52:54.992Z,1.00
2022-11-09T14:55:24.241Z,1.00
2022-11-09T14:57:54.491Z,1.00
2022-11-09T15:00:30.853Z,1.00
2022-11-09T15:02:59.113Z,1.00
2022-11-09T15:05:34.175Z,1.00
2022-11-09T15:08:02.708Z,1.00
2022-11-09T15:10:32.597Z,1.00
2022-11-09T15:13:03.247Z,1.00
2022-11-09T15:15:34.667Z,1.00
2022-11-09T15:18:03.049Z,1.00
2022-11-09T15:20:34.079Z,1.00
2022-11-09T15:23:03.718Z,1.00
2022-11-09T15:25:34.613Z,1.00
2022-11-09T15:28:21.000Z,1.00
2022-11-09T15:31:16.161Z,1.00
2022-11-09T15:33:51.333Z,1.00
2022-11-09T15:36:35.553Z,1.00
2022-11-09T15:39:09.469Z,1.00
2022-11-09T15:41:38.566Z,1.00
2022-11-09T15:44:07.191Z,1.00
2022-11-09T15:46:40.409Z,1.00
2022-11-09T15:49:17.875Z,1.00
2022-11-09T15:51:46.159Z,1.00
2022-11-09T15:54:14.779Z,1.00
2022-11-09T15:56:43.223Z,1.00
2022-11-09T15:59:19.457Z,1.00
2022-11-09T16:01:49.259Z,1.00
2022-11-09T16:04:17.611Z,1.00
2022-11-09T16:06:46.949Z,1.00
2022-11-09T16:09:15.670Z,1.00
2022-11-09T16:11:44.025Z,1.00
2022-11-09T16:14:12.318Z,1.00
2022-11-09T16:16:40.625Z,1.00
2022-11-09T16:19:12.634Z,1.00
2022-11-09T16:21:41.230Z,1.00
2022-11-09T16:24:09.701Z,1.00
2022-11-09T16:26:37.964Z,1.00
2022-11-09T16:29:06.174Z,1.00
2022-11-09T16:31:50.893Z,1.00
2022-11-09T16:34:21.729Z,1.00
2022-11-09T16:36:56.476Z,1.00
2022-11-09T16:39:25.204Z,1.00
2022-11-09T16:41:53.568Z,1.00
2022-11-09T16:44:29.589Z,1.00
2022-11-09T16:46:58.006Z,1.00
2022-11-09T16:49:27.684Z,1.00
2022-11-09T16:51:56.406Z,1.00
2022-11-09T16:54:24.746Z,1.00
2022-11-09T16:56:54.807Z,1.00
2022-11-09T16:59:23.132Z,1.00
2022-11-09T17:01:52.651Z,1.00
2022-11-09T17:04:21.111Z,1.00
2022-11-09T17:06:50.841Z,1.90
2022-11-09T17:09:20.662Z,1.80
2022-11-09T17:11:48.903Z,2.20
2022-11-09T17:14:17.154Z,3.30
2022-11-09T17:16:47.189Z,3.00
2022-11-09T17:19:15.481Z,3.60
2022-11-09T17:21:43.849Z,3.70
2022-11-09T17:24:13.673Z,4.80
2022-11-09T17:26:41.999Z,5.10
2022-11-09T17:29:10.256Z,4.90
2022-11-09T17:31:38.884Z,5.00
2022-11-09T17:34:07.144Z,5.40
2022-11-09T17:37:02.515Z,6.30
2022-11-09T17:39:25.408Z,6.20
2022-11-09T17:41:53.687Z,6.60
2022-11-09T17:44:21.928Z,6.60
2022-11-09T17:46:50.129Z,6.80
2022-11-09T17:49:18.362Z,6.70
2022-11-09T17:51:46.662Z,7.10
2022-11-09T17:54:15.745Z,7.00
2022-11-09T17:56:45.398Z,7.00
2022-11-09T17:59:13.702Z,7.30
2022-11-09T18:01:42.211Z,7.20
2022-11-09T18:04:11.726Z,7.00
2022-11-09T18:06:40.175Z,7.50
2022-11-09T18:09:39.746Z,7.70
2022-11-09T18:11:58.334Z,7.80
2022-11-09T18:14:26.595Z,7.90
2022-11-09T18:16:54.899Z,8.00
2022-11-09T18:19:23.157Z,8.00
2022-11-09T18:21:51.491Z,8.20
2022-11-09T18:24:20.033Z,9.00
2022-11-09T18:26:48.322Z,9.00
2022-11-09T18:29:17.978Z,9.10
2022-11-09T18:31:46.261Z,9.70
2022-11-09T18:34:14.740Z,10.00
2022-11-09T18:36:42.965Z,9.90
2022-11-09T18:39:11.213Z,9.50
2022-11-09T18:41:39.525Z,10.00
2022-11-09T18:44:09.468Z,11.20
2022-11-09T18:46:39.422Z,12.40
2022-11-09T18:49:12.992Z,12.40
2022-11-09T18:51:42.531Z,12.40
2022-11-09T18:54:10.772Z,11.80
2022-11-09T18:56:39.055Z,11.50
2022-11-09T18:59:07.343Z,11.10
2022-11-09T19:01:35.867Z,11.00
2022-11-09T19:04:06.060Z,11.20
2022-11-09T19:06:36.095Z,11.70
2022-11-09T19:09:21.694Z,11.60
2022-11-09T19:11:50.036Z,11.30
2022-11-09T19:14:18.319Z,11.40
2022-11-09T19:16:46.757Z,11.40
2022-11-09T19:19:16.481Z,11.10
2022-11-09T19:21:46.569Z,10.30
2022-11-09T19:24:16.423Z,9.90
2022-11-09T19:26:44.770Z,10.20
2022-11-09T19:29:14.382Z,9.70
2022-11-09T19:31:43.317Z,10.00
2022-11-09T19:34:11.951Z,9.90
2022-11-09T19:36:43.115Z,9.70
2022-11-09T19:39:11.412Z,10.00
2022-11-09T19:41:40.634Z,10.40
2022-11-09T19:44:08.928Z,10.30
2022-11-09T19:46:37.296Z,10.30
2022-11-09T19:49:07.193Z,10.50
2022-11-09T19:51:35.767Z,10.40
2022-11-09T19:54:06.201Z,10.20
2022-11-09T19:56:36.921Z,10.40
2022-11-09T19:59:05.855Z,10.40
2022-11-09T20:01:34.205Z,10.20
2022-11-09T20:04:07.692Z,10.30
2022-11-09T20:06:38.781Z,10.00
2022-11-09T20:09:08.501Z,10.10
2022-11-09T20:11:54.592Z,9.80
2022-11-09T20:14:23.073Z,10.00
2022-11-09T20:16:51.748Z,9.80
2022-11-09T20:19:21.633Z,10.20
2022-11-09T20:21:50.051Z,10.50
2022-11-09T20:24:19.694Z,10.00
2022-11-09T20:26:47.948Z,9.70
2022-11-09T20:29:16.239Z,9.50
2022-11-09T20:31:45.413Z,9.80
2022-11-09T20:34:13.692Z,9.90
2022-11-09T20:36:41.938Z,10.00
2022-11-09T20:39:10.517Z,9.70
2022-11-09T20:41:40.618Z,9.70
2022-11-09T20:44:08.865Z,9.70
2022-11-09T20:46:37.217Z,9.80
2022-11-09T20:49:05.896Z,9.70
2022-11-09T20:51:34.126Z,9.70
2022-11-09T20:54:06.963Z,9.90
2022-11-09T20:56:36.833Z,9.60
2022-11-09T20:59:06.610Z,9.90
2022-11-09T21:01:35.027Z,9.90
2022-11-09T21:04:03.340Z,9.90
2022-11-09T21:06:31.946Z,10.10
2022-11-09T21:09:01.271Z,10.00
2022-11-09T21:11:35.679Z,10.00
2022-11-09T21:14:05.431Z,10.20
2022-11-09T21:16:33.686Z,10.40
2022-11-09T21:19:01.938Z,10.40
2022-11-09T21:21:36.062Z,10.50
2022-11-09T21:24:22.678Z,10.40
2022-11-09T21:27:08.262Z,10.50
2022-11-09T21:29:53.018Z,10.80
2022-11-09T21:32:22.000Z,10.70
2022-11-09T21:34:51.062Z,11.10
2022-11-09T21:37:19.407Z,10.70
2022-11-09T21:39:47.704Z,10.90
2022-11-09T21:42:16.079Z,10.90
2022-11-09T21:44:45.629Z,11.00
2022-11-09T21:47:13.999Z,11.00
2022-11-09T21:49:42.255Z,11.10
2022-11-09T21:52:10.509Z,11.20
2022-11-09T21:54:38.912Z,11.10
2022-11-09T21:57:07.290Z,11.10
2022-11-09T21:59:35.847Z,11.20
2022-11-09T22:02:05.435Z,11.20
2022-11-09T22:04:33.691Z,11.30
2022-11-09T22:07:02.047Z,11.60
2022-11-09T22:09:50.646Z,11.60
2022-11-09T22:12:35.920Z,11.80
2022-11-09T22:15:21.751Z,11.70
2022-11-09T22:17:54.133Z,11.90
2022-11-09T22:20:39.988Z,12.00
2022-11-09T22:23:08.297Z,11.90
2022-11-09T22:25:37.178Z,11.80
2022-11-09T22:28:05.802Z,12.00
2022-11-09T22:30:34.063Z,12.10
2022-11-09T22:33:03.766Z,12.10
2022-11-09T22:35:32.035Z,12.00
2022-11-09T22:38:02.955Z,12.20
2022-11-09T22:40:31.261Z,12.40
2022-11-09T22:42:59.530Z,12.50
2022-11-09T22:45:27.813Z,13.10
2022-11-09T22:47:56.463Z,13.30
2022-11-09T22:50:26.118Z,13.20
2022-11-09T22:53:02.297Z,13.20
2022-11-09T22:55:31.705Z,12.90
2022-11-09T22:58:00.011Z,12.50
2022-11-09T23:00:28.297Z,12.20
2022-11-09T23:02:58.284Z,12.00
2022-11-09T23:05:28.492Z,11.60
2022-11-09T23:07:57.367Z,11.10
2022-11-09T23:10:25.629Z,10.60
2022-11-09T23:12:53.973Z,10.30
2022-11-09T23:15:22.236Z,10.40
2022-11-09T23:18:08.554Z,10.30
2022-11-09T23:20:38.254Z,10.10
2022-11-09T23:23:06.485Z,10.10
2022-11-09T23:25:52.063Z,9.80
2022-11-09T23:28:20.459Z,9.30
2022-11-09T23:30:48.713Z,9.10
2022-11-09T23:33:17.005Z,9.10
2022-11-09T23:35:46.635Z,9.30
2022-11-09T23:38:14.882Z,9.10
2022-11-09T23:40:43.224Z,9.10
2022-11-09T23:43:12.940Z,8.60
2022-11-09T23:45:41.801Z,8.20
2022-11-09T23:48:14.193Z,7.70
2022-11-09T23:50:42.779Z,7.30
2022-11-09T23:53:12.551Z,6.70
2022-11-09T23:55:40.963Z,6.40
2022-11-09T23:58:09.321Z,6.10
